Time;durP1;ratioP1;P1;durP2;ratioP2;P2;SDS_P1;SDS_P2;PMS_P1;PMS_P2;Temp;Humidity;BMP_temperature;BMP_pressure;BME280_temperature;BME280_humidity;BME280_pressure;Samples;Min_cycle;Max_cycle;Signal;HPM_P1;HPM_P2
2023/09/23 00:01:44;;;;;;;1.33;0.60;;;;;;;15.33;81.07;95141.78;5080282;28;20217;-85
2023/09/23 00:04:10;;;;;;;1.30;0.80;;;;;;;15.35;81.04;95146.75;5070932;28;20196;-85
2023/09/23 00:06:37;;;;;;;1.52;0.95;;;;;;;15.36;81.40;95145.75;5067877;28;20224;-85
2023/09/23 00:09:04;;;;;;;0.63;0.63;;;;;;;15.34;80.89;95140.78;5084037;28;20599;-85
2023/09/23 00:11:31;;;;;;;1.20;0.80;;;;;;;15.36;81.35;95164.69;5088994;28;20215;-85
2023/09/23 00:13:57;;;;;;;0.82;0.82;;;;;;;15.35;81.57;95164.91;5070448;28;20196;-85
2023/09/23 00:16:24;;;;;;;0.80;0.80;;;;;;;15.33;81.53;95169.53;5068697;28;20193;-86
2023/09/23 00:18:53;;;;;;;0.90;0.70;;;;;;;15.33;81.53;95167.72;5067084;28;20208;-86
2023/09/23 00:21:19;;;;;;;0.80;0.80;;;;;;;15.34;81.53;95176.28;5068322;28;20208;-85
2023/09/23 00:23:46;;;;;;;1.20;0.85;;;;;;;15.35;81.46;95178.69;5068260;28;20203;-85
2023/09/23 00:26:17;;;;;;;0.82;0.82;;;;;;;15.38;82.35;95203.41;5068323;28;20209;-84
2023/09/23 00:28:43;;;;;;;0.80;0.80;;;;;;;15.42;82.56;95202.72;5079129;28;20224;-85
2023/09/23 00:31:14;;;;;;;0.70;0.70;;;;;;;15.46;82.25;95187.53;5076934;28;20200;-85
2023/09/23 00:33:41;;;;;;;1.00;0.90;;;;;;;15.46;81.95;95179.75;5072468;28;20624;-85
2023/09/23 00:36:10;;;;;;;0.75;0.75;;;;;;;15.41;82.23;95198.53;5068064;28;20231;-85
2023/09/23 00:38:36;;;;;;;0.80;0.80;;;;;;;15.33;82.63;95195.47;5075439;28;20669;-85
2023/09/23 00:41:04;;;;;;;0.77;0.77;;;;;;;15.33;82.76;95206.63;5088520;28;20665;-85
2023/09/23 00:43:32;;;;;;;0.70;0.70;;;;;;;15.21;83.83;95221.28;5079467;28;20614;-85
2023/09/23 00:45:59;;;;;;;0.80;0.80;;;;;;;15.18;83.98;95230.31;5068465;28;20197;-85
2023/09/23 00:48:27;;;;;;;1.10;1.00;;;;;;;15.23;84.05;95229.66;5081306;28;20204;-86
2023/09/23 00:50:54;;;;;;;1.67;0.70;;;;;;;15.24;83.90;95233.03;5069212;28;20216;-85
2023/09/23 00:53:25;;;;;;;0.60;0.60;;;;;;;15.23;84.42;95242.63;5082501;28;20220;-85
2023/09/23 00:55:54;;;;;;;0.80;0.80;;;;;;;15.26;84.43;95244.78;5088402;28;20821;-85
2023/09/23 00:58:22;;;;;;;1.02;0.65;;;;;;;15.33;83.84;95245.53;5088256;28;20184;-85
2023/09/23 01:00:49;;;;;;;0.80;0.80;;;;;;;15.38;84.02;95247.50;5088723;28;20199;-85
2023/09/23 01:03:16;;;;;;;0.70;0.70;;;;;;;15.37;84.13;95238.91;5078983;28;20235;-85
2023/09/23 01:05:43;;;;;;;0.82;0.60;;;;;;;15.37;84.21;95245.91;5057315;28;20197;-85
2023/09/23 01:08:25;;;;;;;0.73;0.70;;;;;;;15.41;84.25;95252.22;5065618;28;20221;-84
2023/09/23 01:10:53;;;;;;;0.70;0.70;;;;;;;15.43;85.09;95260.59;5068018;28;20287;-85
2023/09/23 01:13:20;;;;;;;1.20;0.70;;;;;;;15.45;84.40;95258.59;5067912;28;20270;-85
2023/09/23 01:15:47;;;;;;;0.70;0.70;;;;;;;15.42;83.93;95262.41;5068306;28;20278;-85
2023/09/23 01:18:14;;;;;;;0.60;0.60;;;;;;;15.44;84.17;95269.97;5068797;28;20228;-85
2023/09/23 01:20:42;;;;;;;0.68;0.68;;;;;;;15.48;84.05;95279.72;5071975;28;20304;-85
2023/09/23 01:23:13;;;;;;;0.60;0.60;;;;;;;15.44;83.82;95275.97;5072388;28;20228;-85
2023/09/23 01:25:40;;;;;;;0.70;0.70;;;;;;;15.36;84.31;95296.22;5084465;28;20235;-85
2023/09/23 01:28:11;;;;;;;1.13;0.60;;;;;;;15.39;84.80;95304.38;5086200;28;20837;-85
2023/09/23 01:30:39;;;;;;;0.60;0.60;;;;;;;15.40;85.35;95315.50;5091531;28;20211;-84
2023/09/23 01:33:07;;;;;;;0.98;0.70;;;;;;;15.43;85.09;95302.09;5091294;28;20314;-84
2023/09/23 01:35:34;;;;;;;0.60;0.60;;;;;;;15.37;85.79;95321.13;5091284;28;20196;-85
2023/09/23 01:38:02;;;;;;;0.70;0.70;;;;;;;15.33;85.33;95325.97;5086464;28;20200;-85
2023/09/23 01:40:31;;;;;;;0.80;0.80;;;;;;;15.30;85.36;95333.38;5071228;28;20205;-85
2023/09/23 01:42:58;;;;;;;0.63;0.63;;;;;;;15.21;85.45;95330.22;5077075;28;20586;-85
2023/09/23 01:45:26;;;;;;;1.10;0.70;;;;;;;15.26;85.86;95337.38;5084683;28;20227;-85
2023/09/23 01:47:56;;;;;;;0.73;0.73;;;;;;;15.27;85.69;95350.13;5076481;28;20262;-85
2023/09/23 01:50:23;;;;;;;3.00;0.80;;;;;;;15.25;86.03;95354.75;5071518;28;20205;-85
2023/09/23 01:52:50;;;;;;;0.73;0.73;;;;;;;15.26;86.08;95365.91;5075128;28;20236;-85
2023/09/23 01:55:17;;;;;;;0.80;0.80;;;;;;;15.25;86.96;95379.88;5077578;28;20205;-85
2023/09/23 01:57:47;;;;;;;0.80;0.80;;;;;;;15.26;87.07;95384.84;5071553;28;20208;-85
2023/09/23 02:00:22;;;;;;;0.85;0.70;;;;;;;15.27;87.71;95386.44;5091033;28;20204;-85
2023/09/23 02:02:49;;;;;;;0.80;0.80;;;;;;;15.28;87.43;95393.22;5082427;28;20287;-85
2023/09/23 02:05:18;;;;;;;0.80;0.70;;;;;;;15.31;86.84;95379.03;5070730;28;20201;-86
2023/09/23 02:07:46;;;;;;;0.75;0.70;;;;;;;15.28;87.35;95385.44;5070992;28;20829;-85
2023/09/23 02:10:14;;;;;;;0.73;0.73;;;;;;;15.33;86.81;95383.03;5069096;28;20300;-85
2023/09/23 02:12:41;;;;;;;0.98;0.90;;;;;;;15.33;86.94;95390.00;5068180;28;20220;-85
2023/09/23 02:15:10;;;;;;;1.27;0.80;;;;;;;15.34;86.50;95392.41;5070381;28;20838;-85
2023/09/23 02:17:36;;;;;;;1.95;0.75;;;;;;;15.38;86.57;95398.75;5070629;28;20686;-86
2023/09/23 02:20:09;;;;;;;3.08;0.80;;;;;;;15.41;86.39;95392.34;5078752;28;20270;-85
2023/09/23 02:22:36;;;;;;;0.88;0.70;;;;;;;15.39;86.03;95386.59;5081547;28;20212;-85
2023/09/23 02:25:04;;;;;;;0.43;0.43;;;;;;;15.37;86.13;95391.19;5070665;28;20205;-85
2023/09/23 02:27:30;;;;;;;1.27;0.63;;;;;;;15.26;86.18;95392.66;5068757;28;20312;-85
2023/09/23 02:29:57;;;;;;;0.60;0.60;;;;;;;15.29;86.33;95397.41;5069708;28;20209;-85
2023/09/23 02:32:24;;;;;;;1.25;0.70;;;;;;;15.28;86.31;95406.19;5070803;28;20232;-85
2023/09/23 02:34:51;;;;;;;1.38;0.90;;;;;;;15.31;86.51;95402.41;5050303;28;20699;-85
2023/09/23 02:37:18;;;;;;;0.70;0.70;;;;;;;15.30;87.18;95408.59;5050042;28;20232;-85
2023/09/23 02:39:45;;;;;;;0.70;0.70;;;;;;;15.31;87.02;95405.78;5066535;28;20200;-85
2023/09/23 02:42:12;;;;;;;0.98;0.77;;;;;;;15.29;87.33;95401.81;5076519;28;20307;-84
2023/09/23 02:44:38;;;;;;;0.70;0.70;;;;;;;15.31;87.46;95407.59;5073642;28;20244;-85
2023/09/23 02:47:05;;;;;;;0.90;0.70;;;;;;;15.33;87.26;95405.56;5069781;28;20225;-85
2023/09/23 02:49:33;;;;;;;1.35;0.63;;;;;;;15.34;87.50;95410.56;5078705;28;20202;-85
2023/09/23 02:51:59;;;;;;;2.90;0.75;;;;;;;15.35;86.99;95404.38;5089781;28;20265;-85
2023/09/23 02:54:27;;;;;;;0.60;0.60;;;;;;;15.27;86.51;95380.47;5089730;28;20429;-85
2023/09/23 02:56:53;;;;;;;0.80;0.70;;;;;;;15.21;86.02;95375.09;5086518;28;20205;-85
2023/09/23 02:59:26;;;;;;;1.30;0.60;;;;;;;15.29;85.95;95391.44;5068242;28;20262;-85
2023/09/23 03:01:53;;;;;;;1.23;0.80;;;;;;;15.24;85.91;95389.47;5068773;28;20701;-84
2023/09/23 03:04:23;;;;;;;0.47;0.47;;;;;;;15.25;86.15;95391.06;5078815;28;20192;-85
2023/09/23 03:06:55;;;;;;;0.60;0.60;;;;;;;15.20;85.57;95370.94;5090147;28;20230;-85
2023/09/23 03:09:24;;;;;;;2.22;0.70;;;;;;;15.18;85.73;95380.75;5089566;28;20249;-84
2023/09/23 03:11:53;;;;;;;1.73;0.75;;;;;;;15.21;85.94;95395.06;5090202;28;20224;-86
2023/09/23 03:14:23;;;;;;;0.80;0.60;;;;;;;15.20;86.08;95393.50;5089874;28;20250;-85
2023/09/23 03:16:51;;;;;;;0.80;0.80;;;;;;;15.08;85.99;95390.75;5068490;28;20205;-85
2023/09/23 03:19:24;;;;;;;0.63;0.63;;;;;;;15.11;86.33;95403.31;5076790;28;20258;-85
2023/09/23 03:21:55;;;;;;;1.67;0.70;;;;;;;15.12;86.49;95401.50;5069203;28;20225;-85
2023/09/23 03:24:22;;;;;;;1.77;0.80;;;;;;;15.06;86.70;95410.91;5069265;28;20204;-85
2023/09/23 03:26:48;;;;;;;1.48;0.80;;;;;;;15.08;86.78;95413.31;5069470;28;20189;-85
2023/09/23 03:29:15;;;;;;;0.75;0.73;;;;;;;15.04;86.74;95414.72;5069423;28;20209;-85
2023/09/23 03:31:41;;;;;;;0.93;0.80;;;;;;;15.03;86.39;95405.34;5067127;28;20217;-85
2023/09/23 03:34:13;;;;;;;0.68;0.68;;;;;;;14.95;86.45;95406.41;5070474;28;20193;-85
2023/09/23 03:36:39;;;;;;;1.33;1.02;;;;;;;14.94;86.41;95409.19;5068914;28;20300;-85
2023/09/23 03:39:08;;;;;;;1.33;0.90;;;;;;;14.94;86.65;95404.00;5077467;28;20671;-85
2023/09/23 03:41:36;;;;;;;0.77;0.77;;;;;;;14.94;86.66;95407.41;5089132;28;20314;-85
2023/09/23 03:44:03;;;;;;;0.80;0.80;;;;;;;14.95;86.52;95406.41;5081625;28;20200;-85
2023/09/23 03:46:30;;;;;;;2.55;1.25;;;;;;;14.93;86.73;95416.19;5073904;28;20196;-85
2023/09/23 03:48:56;;;;;;;1.23;0.77;;;;;;;14.96;86.34;95418.38;5067206;28;20905;-85
2023/09/23 03:51:24;;;;;;;0.80;0.80;;;;;;;14.97;86.23;95421.75;5069256;28;20200;-85
2023/09/23 03:53:51;;;;;;;0.88;0.82;;;;;;;14.96;86.35;95422.75;5068645;28;20189;-85
2023/09/23 03:56:20;;;;;;;2.67;0.90;;;;;;;14.96;86.90;95439.09;5069004;28;20208;-85
2023/09/23 03:58:46;;;;;;;2.08;0.90;;;;;;;14.94;86.33;95438.50;5068793;28;20196;-84
2023/09/23 04:01:14;;;;;;;1.25;0.80;;;;;;;14.96;86.15;95446.88;5068695;28;20200;-85
2023/09/23 04:03:41;;;;;;;0.95;0.90;;;;;;;15.00;86.00;95444.69;5062670;28;20618;-85
2023/09/23 04:06:07;;;;;;;1.80;0.80;;;;;;;14.96;86.61;95462.44;5068632;28;20212;-85
2023/09/23 04:08:34;;;;;;;0.88;0.80;;;;;;;14.99;86.63;95463.81;5068639;28;20213;-85
2023/09/23 04:11:03;;;;;;;0.90;0.90;;;;;;;14.96;86.89;95475.41;5068761;28;20276;-85
2023/09/23 04:13:31;;;;;;;1.67;1.08;;;;;;;14.97;86.51;95471.81;5076867;28;20219;-85
2023/09/23 04:16:00;;;;;;;0.98;0.90;;;;;;;14.97;86.67;95478.78;5072316;28;20200;-85
2023/09/23 04:18:27;;;;;;;0.85;0.80;;;;;;;14.98;86.60;95480.38;5071212;28;20197;-85
2023/09/23 04:20:53;;;;;;;1.80;1.15;;;;;;;15.00;87.10;95496.53;5071199;28;20289;-85
2023/09/23 04:23:21;;;;;;;1.25;1.10;;;;;;;14.99;87.33;95500.13;5068224;28;20224;-85
2023/09/23 04:25:49;;;;;;;2.25;1.10;;;;;;;14.96;87.07;95501.34;5068522;28;20662;-85
2023/09/23 04:28:15;;;;;;;1.17;0.90;;;;;;;14.93;86.80;95498.34;5068632;28;20266;-84
2023/09/23 04:30:43;;;;;;;1.17;1.08;;;;;;;14.93;86.41;95498.34;5069126;28;20205;-85
2023/09/23 04:33:12;;;;;;;2.70;0.82;;;;;;;14.92;87.25;95526.06;5068340;28;20235;-85
2023/09/23 04:35:38;;;;;;;0.80;0.80;;;;;;;14.95;87.35;95520.47;5066991;28;20215;-85
2023/09/23 04:38:05;;;;;;;1.02;0.90;;;;;;;14.98;87.76;95527.06;5067653;28;20201;-85
2023/09/23 04:40:31;;;;;;;1.10;1.00;;;;;;;15.00;87.29;95525.84;5068386;28;20413;-85
2023/09/23 04:42:58;;;;;;;1.25;1.00;;;;;;;14.89;87.22;95536.84;5073494;28;20219;-85
2023/09/23 04:45:24;;;;;;;1.50;1.02;;;;;;;14.88;86.95;95526.69;5082015;28;20666;-85
2023/09/23 04:47:52;;;;;;;1.48;1.00;;;;;;;14.89;86.90;95530.84;5068216;28;20220;-85
2023/09/23 04:50:23;;;;;;;1.42;0.90;;;;;;;14.90;86.51;95527.25;5085542;28;20218;-85
2023/09/23 04:52:50;;;;;;;1.98;1.00;;;;;;;14.82;86.40;95523.09;5074066;28;20901;-85
2023/09/23 04:55:16;;;;;;;0.90;0.90;;;;;;;14.81;86.44;95522.31;5071919;28;20512;-85
2023/09/23 04:57:43;;;;;;;1.38;1.02;;;;;;;14.85;86.67;95528.66;5071731;28;20205;-85
2023/09/23 05:00:10;;;;;;;1.88;1.00;;;;;;;14.84;87.30;95541.84;5064517;28;20197;-85
2023/09/23 05:02:40;;;;;;;1.70;1.17;;;;;;;14.84;86.49;95524.47;5066710;28;20256;-85
2023/09/23 05:05:09;;;;;;;1.98;0.90;;;;;;;14.85;86.91;95539.03;5072181;28;20246;-85
2023/09/23 05:07:37;;;;;;;1.13;0.80;;;;;;;14.86;87.07;95547.63;5070546;28;20238;-85
2023/09/23 05:10:05;;;;;;;1.25;1.00;;;;;;;14.84;87.22;95553.00;5078310;28;20204;-84
2023/09/23 05:12:31;;;;;;;2.20;1.20;;;;;;;14.89;87.29;95567.16;5074596;28;20767;-85
2023/09/23 05:14:58;;;;;;;3.22;1.30;;;;;;;14.90;91.09;95620.59;5071519;28;20201;-84
2023/09/23 05:17:27;;;;;;;2.33;1.10;;;;;;;15.19;98.91;95718.72;5077102;28;20193;-85
2023/09/23 05:19:54;;;;;;;3.55;1.30;;;;;;;15.36;95.46;95683.56;5075721;28;20207;-84
2023/09/23 05:22:22;;;;;;;2.20;1.30;;;;;;;15.47;90.00;95623.22;5075777;28;20221;-86
2023/09/23 05:24:50;;;;;;;2.70;1.00;;;;;;;15.60;89.37;95606.03;5073787;28;20193;-85
2023/09/23 05:27:17;;;;;;;2.83;1.20;;;;;;;15.72;88.88;95605.19;5073714;28;20670;-89
2023/09/23 05:29:45;;;;;;;1.30;1.20;;;;;;;15.67;81.98;95482.22;5072076;28;20216;-85
2023/09/23 05:32:12;;;;;;;1.60;1.20;;;;;;;15.77;86.40;95557.84;5071620;28;20308;-87
2023/09/23 05:34:39;;;;;;;8.98;1.27;;;;;;;15.96;86.10;95572.50;5072116;28;20200;-86
2023/09/23 05:37:06;;;;;;;31.90;3.67;;;;;;;15.92;80.22;95444.09;5072496;28;20731;-86
2023/09/23 05:39:34;;;;;;;3.55;1.45;;;;;;;15.80;83.34;95498.47;5071629;28;20200;-91
2023/09/23 05:42:01;;;;;;;3.38;1.40;;;;;;;16.02;86.21;95576.03;5069129;28;20220;-89
2023/09/23 05:44:28;;;;;;;3.85;1.25;;;;;;;16.22;84.04;95537.72;5051094;28;20199;-89
2023/09/23 05:46:55;;;;;;;1.40;1.30;;;;;;;16.38;82.28;95508.59;5069520;28;20732;-89
2023/09/23 05:49:23;;;;;;;0.98;0.90;;;;;;;16.47;80.32;95460.53;5071102;28;20312;-89
2023/09/23 05:51:54;;;;;;;2.53;1.20;;;;;;;16.59;79.18;95445.00;5070930;28;20223;-87
2023/09/23 05:54:22;;;;;;;2.00;1.00;;;;;;;16.73;79.12;95456.91;5071107;28;20206;-87
2023/09/23 05:56:50;;;;;;;2.53;1.15;;;;;;;16.85;77.92;95431.75;5069346;28;20225;-87
2023/09/23 05:59:17;;;;;;;2.13;1.23;;;;;;;16.97;77.37;95423.97;5070803;28;20209;-87
2023/09/23 06:01:50;;;;;;;1.25;1.10;;;;;;;17.03;75.92;95394.50;5070629;28;20232;-87
2023/09/23 06:04:17;;;;;;;1.23;1.13;;;;;;;17.10;75.63;95391.81;5072218;28;20649;-87
2023/09/23 06:06:43;;;;;;;1.30;1.20;;;;;;;17.16;75.13;95389.09;5082559;28;20197;-90
2023/09/23 06:09:10;;;;;;;1.45;1.00;;;;;;;17.22;74.40;95366.63;5077059;28;20213;-90
2023/09/23 06:11:37;;;;;;;2.92;1.38;;;;;;;17.23;74.36;95371.59;5068511;28;20220;-90
2023/09/23 06:14:09;;;;;;;3.00;1.08;;;;;;;17.25;74.29;95385.19;5068434;28;20201;-90
2023/09/23 06:16:36;;;;;;;2.13;1.10;;;;;;;17.27;75.09;95403.97;5065071;28;20768;-85
2023/09/23 06:19:02;;;;;;;4.05;1.40;;;;;;;17.06;72.50;95336.03;5070783;28;20238;-85
2023/09/23 06:21:29;;;;;;;3.20;1.63;;;;;;;16.64;73.54;95353.41;5071470;28;20286;-85
2023/09/23 06:23:55;;;;;;;2.05;1.35;;;;;;;16.42;74.62;95395.44;5071267;28;20229;-85
2023/09/23 06:26:22;;;;;;;1.80;1.35;;;;;;;16.22;75.64;95420.81;5071268;28;20205;-85
2023/09/23 06:28:48;;;;;;;1.90;1.60;;;;;;;16.04;77.22;95462.34;5074350;28;20672;-85
2023/09/23 06:31:18;;;;;;;3.42;1.70;;;;;;;15.89;77.99;95491.25;5066977;28;20685;-85
2023/09/23 06:33:45;;;;;;;1.60;1.48;;;;;;;15.86;78.73;95510.63;5070938;28;20674;-86
2023/09/23 06:36:11;;;;;;;2.03;1.60;;;;;;;15.74;79.81;95522.72;5069837;28;20193;-85
2023/09/23 06:38:38;;;;;;;3.50;1.90;;;;;;;15.71;79.86;95528.31;5076356;28;20184;-85
2023/09/23 06:41:04;;;;;;;1.77;1.67;;;;;;;15.64;80.63;95543.13;5077627;28;20193;-85
2023/09/23 06:43:31;;;;;;;1.98;1.88;;;;;;;15.65;81.28;95568.06;5077930;28;20217;-85
2023/09/23 06:45:59;;;;;;;2.55;1.60;;;;;;;15.60;81.53;95575.69;5067608;28;20227;-84
2023/09/23 06:48:27;;;;;;;4.90;1.52;;;;;;;15.56;81.97;95582.31;5070645;28;20220;-85
2023/09/23 06:50:58;;;;;;;1.80;1.50;;;;;;;15.49;82.74;95610.06;5069366;28;20205;-85
2023/09/23 06:53:24;;;;;;;1.75;1.40;;;;;;;15.46;82.83;95611.25;5069297;28;20218;-86
2023/09/23 06:55:51;;;;;;;1.50;1.27;;;;;;;15.32;84.16;95640.84;5070667;28;20204;-85
2023/09/23 06:58:17;;;;;;;3.22;1.50;;;;;;;15.33;84.55;95645.03;5071800;28;20238;-85
2023/09/23 07:00:44;;;;;;;1.50;1.40;;;;;;;15.40;83.99;95645.00;5066235;28;20281;-85
2023/09/23 07:03:10;;;;;;;3.85;1.67;;;;;;;15.48;84.16;95653.38;5071250;28;20223;-85
2023/09/23 07:05:39;;;;;;;1.50;1.38;;;;;;;15.50;84.39;95664.34;5072345;28;20189;-85
2023/09/23 07:08:05;;;;;;;1.40;1.30;;;;;;;15.53;83.86;95656.16;5070554;28;20669;-85
2023/09/23 07:10:34;;;;;;;2.60;1.40;;;;;;;15.52;84.72;95670.13;5069680;28;20189;-84
2023/09/23 07:13:01;;;;;;;4.30;1.40;;;;;;;15.49;84.15;95665.34;5069436;28;20223;-85
2023/09/23 07:15:28;;;;;;;1.63;1.40;;;;;;;15.56;83.69;95670.56;5069117;28;20193;-85
2023/09/23 07:17:54;;;;;;;2.85;1.50;;;;;;;15.52;83.59;95667.53;5064974;28;20204;-85
2023/09/23 07:20:21;;;;;;;3.00;1.50;;;;;;;15.53;83.99;95686.50;5070017;28;20197;-85
2023/09/23 07:22:49;;;;;;;2.17;1.50;;;;;;;15.56;83.39;95677.53;5069097;28;20227;-85
2023/09/23 07:25:15;;;;;;;2.85;1.58;;;;;;;15.61;83.02;95677.69;5051811;28;20228;-85
2023/09/23 07:27:41;;;;;;;1.92;1.60;;;;;;;15.55;83.84;95689.69;5068448;28;20196;-85
2023/09/23 07:30:09;;;;;;;2.50;1.30;;;;;;;15.53;84.50;95710.66;5068297;28;20721;-85
2023/09/23 07:32:35;;;;;;;3.63;1.40;;;;;;;15.51;83.16;95685.91;5069237;28;20232;-85
2023/09/23 07:35:02;;;;;;;1.73;1.35;;;;;;;15.47;81.24;95653.56;5060771;28;20689;-86
2023/09/23 07:37:30;;;;;;;1.48;1.15;;;;;;;15.28;79.28;95594.75;5068257;28;20562;-86
2023/09/23 07:39:57;;;;;;;1.90;1.40;;;;;;;15.16;78.65;95584.25;5057662;28;20200;-85
2023/09/23 07:42:24;;;;;;;1.30;1.20;;;;;;;15.16;77.80;95572.06;5052052;28;20216;-85
2023/09/23 07:44:50;;;;;;;1.83;1.40;;;;;;;15.16;78.46;95589.44;5065485;28;20201;-85
2023/09/23 07:47:16;;;;;;;2.10;1.25;;;;;;;15.27;79.11;95622.50;5069977;28;20193;-84
2023/09/23 07:49:43;;;;;;;1.20;1.10;;;;;;;15.39;79.32;95625.28;5068671;28;20581;-85
2023/09/23 07:52:10;;;;;;;1.52;1.30;;;;;;;15.43;79.21;95637.59;5068236;28;20729;-85
2023/09/23 07:54:38;;;;;;;1.38;1.20;;;;;;;15.44;78.10;95615.84;5059696;28;20196;-85
2023/09/23 07:57:05;;;;;;;1.45;1.20;;;;;;;15.45;77.02;95585.50;5079094;28;20213;-86
2023/09/23 07:59:32;;;;;;;2.05;1.20;;;;;;;15.41;76.72;95581.72;5069836;28;20193;-85
2023/09/23 08:01:58;;;;;;;2.20;1.25;;;;;;;15.38;77.52;95608.13;5069996;28;20224;-84
2023/09/23 08:04:25;;;;;;;1.92;1.20;;;;;;;15.34;76.25;95592.16;5072715;28;20220;-85
2023/09/23 08:06:51;;;;;;;1.10;1.00;;;;;;;15.32;76.54;95599.34;5070656;28;20232;-85
2023/09/23 08:09:18;;;;;;;2.45;1.05;;;;;;;15.34;76.85;95607.72;5070927;28;20227;-86
2023/09/23 08:11:44;;;;;;;1.02;0.93;;;;;;;15.40;78.11;95647.59;5074089;28;20213;-84
2023/09/23 08:14:12;;;;;;;1.20;1.05;;;;;;;15.38;78.12;95652.22;5072280;28;20287;-85
2023/09/23 08:16:38;;;;;;;1.70;1.38;;;;;;;15.40;77.32;95642.41;5085511;28;20497;-85
2023/09/23 08:19:05;;;;;;;1.42;1.00;;;;;;;15.39;76.65;95626.06;5071994;28;20197;-85
2023/09/23 08:21:31;;;;;;;1.63;1.30;;;;;;;15.39;76.27;95620.88;5069296;28;21053;-85
2023/09/23 08:23:58;;;;;;;2.20;1.30;;;;;;;15.36;75.79;95612.72;5071086;28;20197;-85
2023/09/23 08:26:24;;;;;;;1.45;1.20;;;;;;;15.29;75.63;95593.75;5071370;28;20676;-85
2023/09/23 08:28:51;;;;;;;1.52;1.00;;;;;;;15.30;74.92;95584.97;5073119;28;20224;-85
2023/09/23 08:31:19;;;;;;;0.95;0.90;;;;;;;15.25;75.28;95602.94;5074088;28;20207;-86
2023/09/23 08:33:45;;;;;;;1.20;1.00;;;;;;;15.32;75.83;95616.72;5073940;28;20213;-85
2023/09/23 08:36:11;;;;;;;3.42;1.30;;;;;;;15.25;75.81;95621.91;5073927;28;20201;-85
2023/09/23 08:38:39;;;;;;;2.38;1.20;;;;;;;15.27;75.97;95627.69;5073901;28;20200;-85
2023/09/23 08:41:07;;;;;;;1.33;1.20;;;;;;;15.26;75.75;95636.47;5076505;28;20292;-85
2023/09/23 08:43:37;;;;;;;1.60;1.20;;;;;;;15.42;75.50;95637.81;5076735;28;20217;-85
2023/09/23 08:46:04;;;;;;;1.10;1.00;;;;;;;15.42;74.63;95604.88;5080815;28;20200;-86
2023/09/23 08:48:34;;;;;;;3.60;1.10;;;;;;;15.52;74.45;95597.47;5075512;28;20239;-85
2023/09/23 08:51:02;;;;;;;2.83;0.95;;;;;;;15.49;76.71;95651.56;5076833;28;20200;-85
2023/09/23 08:53:31;;;;;;;3.22;1.10;;;;;;;15.51;77.25;95672.94;5075679;28;20619;-85
2023/09/23 08:55:58;;;;;;;1.13;0.90;;;;;;;15.60;76.61;95663.94;5080382;28;20232;-85
2023/09/23 08:58:24;;;;;;;3.13;2.05;;;;;;;15.64;74.56;95605.41;5062442;28;20267;-85
2023/09/23 09:00:52;;;;;;;2.55;1.10;;;;;;;15.71;72.94;95562.06;5056215;28;20197;-85
2023/09/23 09:03:19;;;;;;;1.75;1.02;;;;;;;15.70;73.27;95564.88;5061572;28;20617;-86
2023/09/23 09:05:47;;;;;;;2.22;2.00;;;;;;;15.77;73.07;95574.22;5077931;28;20564;-85
2023/09/23 09:08:14;;;;;;;1.65;1.23;;;;;;;15.78;72.69;95556.81;5095566;28;20208;-85
2023/09/23 09:10:41;;;;;;;1.55;1.17;;;;;;;15.86;71.80;95538.41;5083545;28;20220;-85
2023/09/23 09:13:08;;;;;;;1.77;0.93;;;;;;;15.89;72.28;95556.16;5084820;28;20230;-85
2023/09/23 09:15:35;;;;;;;2.33;1.10;;;;;;;15.89;71.23;95538.78;5087416;28;20763;-86
2023/09/23 09:18:01;;;;;;;1.10;1.00;;;;;;;15.94;72.35;95566.72;5075079;28;20207;-85
2023/09/23 09:20:28;;;;;;;1.88;1.02;;;;;;;16.01;71.12;95527.69;5075193;28;20201;-85
2023/09/23 09:22:56;;;;;;;1.10;0.95;;;;;;;16.01;69.75;95479.16;5074520;28;20224;-85
2023/09/23 09:25:22;;;;;;;1.13;1.02;;;;;;;16.14;69.93;95494.66;5072928;28;20197;-85
2023/09/23 09:27:50;;;;;;;3.75;1.10;;;;;;;16.19;68.99;95463.59;5072275;28;20211;-85
2023/09/23 09:30:19;;;;;;;0.95;0.90;;;;;;;16.27;68.01;95439.16;5073328;28;21005;-85
2023/09/23 09:32:46;;;;;;;2.58;1.10;;;;;;;16.36;67.88;95432.66;5083609;28;20239;-86
2023/09/23 09:35:14;;;;;;;1.27;1.00;;;;;;;16.44;67.34;95422.00;5093255;28;20203;-85
2023/09/23 09:37:43;;;;;;;2.20;1.00;;;;;;;16.52;65.76;95359.34;5093260;28;20253;-84
2023/09/23 09:40:15;;;;;;;2.22;1.20;;;;;;;16.57;64.77;95325.66;5094049;28;20196;-85
2023/09/23 09:42:48;;;;;;;2.15;1.08;;;;;;;16.75;64.16;95313.66;5083256;28;20278;-86
2023/09/23 09:45:19;;;;;;;1.02;0.90;;;;;;;16.85;64.27;95306.94;5076605;28;20209;-85
2023/09/23 09:47:47;;;;;;;1.10;1.00;;;;;;;16.95;63.38;95288.16;5073597;28;20203;-85
2023/09/23 09:50:15;;;;;;;1.27;0.98;;;;;;;17.08;64.66;95328.81;5086670;28;20218;-85
2023/09/23 09:52:43;;;;;;;1.55;0.88;;;;;;;17.08;64.10;95321.81;5074625;28;20255;-84
2023/09/23 09:55:14;;;;;;;1.08;0.98;;;;;;;17.10;64.79;95345.00;5070873;28;20201;-85
2023/09/23 09:57:41;;;;;;;2.47;1.00;;;;;;;17.18;63.21;95280.41;5063350;28;20232;-86
2023/09/23 10:00:15;;;;;;;0.82;0.80;;;;;;;17.09;63.36;95278.38;5068415;28;20208;-85
2023/09/23 10:02:42;;;;;;;1.92;0.90;;;;;;;17.04;64.97;95344.06;5070727;28;20311;-85
2023/09/23 10:05:17;;;;;;;1.50;1.02;;;;;;;17.02;64.80;95350.50;5079545;28;20582;-85
2023/09/23 10:07:53;;;;;;;1.80;1.35;;;;;;;17.05;64.56;95330.03;5093871;28;20214;-84
2023/09/23 10:10:30;;;;;;;0.82;0.70;;;;;;;17.08;61.30;95196.94;5093816;28;20472;-85
2023/09/23 10:12:58;;;;;;;1.98;1.25;;;;;;;17.10;61.15;95181.91;5077007;28;20224;-85
2023/09/23 10:15:27;;;;;;;1.02;0.93;;;;;;;17.10;61.03;95171.50;5069918;28;20295;-85
2023/09/23 10:17:54;;;;;;;3.03;0.90;;;;;;;16.77;60.81;95150.44;5072416;28;20205;-85
2023/09/23 10:20:24;;;;;;;0.70;0.70;;;;;;;16.75;61.46;95176.66;5072908;28;20205;-85
2023/09/23 10:22:52;;;;;;;0.73;0.73;;;;;;;16.73;62.82;95245.50;5073186;28;20235;-85
2023/09/23 10:25:19;;;;;;;1.65;0.95;;;;;;;16.78;63.05;95259.41;5072215;28;20259;-85
2023/09/23 10:27:59;;;;;;;1.60;0.90;;;;;;;16.88;62.14;95231.06;5083794;28;20226;-84
2023/09/23 10:30:27;;;;;;;2.25;1.10;;;;;;;16.82;64.03;95296.16;5087018;28;20228;-85
2023/09/23 10:32:55;;;;;;;0.93;0.70;;;;;;;16.88;63.20;95290.88;5071420;28;20261;-85
2023/09/23 10:35:23;;;;;;;2.30;0.88;;;;;;;16.98;63.70;95303.34;5070173;28;20196;-85
2023/09/23 10:37:50;;;;;;;1.63;0.90;;;;;;;17.03;62.20;95255.84;5069928;28;20193;-86
2023/09/23 10:40:17;;;;;;;0.90;0.90;;;;;;;17.01;61.61;95206.66;5070710;28;20203;-85
2023/09/23 10:42:47;;;;;;;2.10;1.00;;;;;;;17.11;61.19;95190.50;5070858;28;20224;-85
2023/09/23 10:45:16;;;;;;;2.13;1.92;;;;;;;17.18;60.96;95189.34;5076114;28;20197;-86
2023/09/23 10:47:44;;;;;;;2.25;1.80;;;;;;;17.10;59.74;95114.25;5079254;28;20721;-85
2023/09/23 10:50:11;;;;;;;3.67;1.00;;;;;;;17.02;59.79;95117.19;5071622;28;20274;-85
2023/09/23 10:52:38;;;;;;;1.15;1.00;;;;;;;16.96;58.88;95060.88;5070559;28;20213;-85
2023/09/23 10:55:05;;;;;;;1.17;0.88;;;;;;;16.91;58.88;95069.41;5077369;28;20200;-85
2023/09/23 10:57:32;;;;;;;1.42;1.08;;;;;;;16.96;58.97;95073.88;5090905;28;20268;-85
2023/09/23 10:59:59;;;;;;;1.83;1.27;;;;;;;17.03;59.34;95105.00;5090827;28;20192;-85
2023/09/23 11:02:27;;;;;;;1.23;1.10;;;;;;;17.03;59.82;95129.19;5089004;28;20230;-85
2023/09/23 11:04:55;;;;;;;1.70;0.82;;;;;;;17.07;59.27;95100.91;5069402;28;20201;-85
2023/09/23 11:07:22;;;;;;;0.90;0.90;;;;;;;16.92;57.39;95002.56;5069956;28;20208;-85
2023/09/23 11:09:48;;;;;;;1.20;1.10;;;;;;;17.00;58.21;95050.81;5069595;28;20311;-85
2023/09/23 11:12:16;;;;;;;1.63;0.90;;;;;;;17.07;58.39;95061.91;5084112;28;20219;-85
2023/09/23 11:14:43;;;;;;;1.05;0.80;;;;;;;16.96;59.14;95091.31;5089566;28;20199;-85
2023/09/23 11:17:20;;;;;;;1.25;0.93;;;;;;;16.98;58.97;95084.06;5079454;28;20196;-85
2023/09/23 11:19:54;;;;;;;1.17;0.80;;;;;;;17.00;59.38;95114.03;5067982;28;20198;-84
2023/09/23 11:22:25;;;;;;;1.00;0.98;;;;;;;16.94;56.60;94987.50;5069933;28;20216;-85
2023/09/23 11:24:51;;;;;;;1.00;0.80;;;;;;;16.92;56.15;94958.38;5085718;28;20256;-85
2023/09/23 11:27:18;;;;;;;2.15;0.85;;;;;;;16.94;55.53;94930.28;5071053;28;20201;-85
2023/09/23 11:29:44;;;;;;;0.80;0.80;;;;;;;16.92;55.86;94930.56;5062843;28;20221;-86
2023/09/23 11:32:12;;;;;;;2.10;1.05;;;;;;;16.99;57.58;95018.81;5060795;28;20217;-86
2023/09/23 11:34:38;;;;;;;1.92;0.90;;;;;;;16.99;57.88;95047.44;5068886;28;20258;-86
2023/09/23 11:37:06;;;;;;;7.65;6.85;;;;;;;17.00;57.85;95064.63;5068665;28;20213;-86